Terminal Aerodrome Forecast
Issued by NWS Wilmington, NC

Home | Current Version | Previous Version | Text Only | Print | Product List | Glossary On
Versions: 1 2 3 4 5 6 7 8 9 10 11 12 13 14 15 16 17 18 19 20 21 22 23 24 25 26 27 28 29 30 31 32 33 34 35 36 37 38 39 40 41 42 43
000
FTUS42 KILM 240520
TAFILM
TAF
KILM 240520Z 2406/2506 32002KT P6SM BKN070
     FM240900 32002KT 3SM BR BKN040
     FM241200 32002KT 1 1/2SM BR SCT070
     FM241300 18002KT P6SM SCT080
     FM242000 15005KT P6SM FEW100=

USA.gov is the U.S. government's official web portal to all federal, state and local government web resources and services.